sensor_id;sensor_type;location;lat;lon;timestamp;temperature;humidity
47757;SHT35;22147;52.388;13.390;2024-03-02T00:02:06;6.37;93.10
47757;SHT35;22147;52.388;13.390;2024-03-02T00:04:37;6.38;93.07
47757;SHT35;22147;52.388;13.390;2024-03-02T00:07:08;6.42;93.07
47757;SHT35;22147;52.388;13.390;2024-03-02T00:09:37;6.42;93.04
47757;SHT35;22147;52.388;13.390;2024-03-02T00:12:11;6.41;93.07
47757;SHT35;22147;52.388;13.390;2024-03-02T00:14:45;6.44;93.09
47757;SHT35;22147;52.388;13.390;2024-03-02T00:17:25;6.45;93.12
47757;SHT35;22147;52.388;13.390;2024-03-02T00:19:58;6.48;93.12
47757;SHT35;22147;52.388;13.390;2024-03-02T00:22:28;6.49;93.09
47757;SHT35;22147;52.388;13.390;2024-03-02T00:24:58;6.49;93.13
47757;SHT35;22147;52.388;13.390;2024-03-02T00:27:29;6.49;93.14
47757;SHT35;22147;52.388;13.390;2024-03-02T00:30:01;6.52;93.15
47757;SHT35;22147;52.388;13.390;2024-03-02T00:32:35;6.53;93.15
47757;SHT35;22147;52.388;13.390;2024-03-02T00:35:05;6.55;93.16
47757;SHT35;22147;52.388;13.390;2024-03-02T00:37:36;6.55;93.14
47757;SHT35;22147;52.388;13.390;2024-03-02T00:40:08;6.53;93.17
47757;SHT35;22147;52.388;13.390;2024-03-02T00:42:40;6.55;93.17
47757;SHT35;22147;52.388;13.390;2024-03-02T00:45:10;6.56;93.19
47757;SHT35;22147;52.388;13.390;2024-03-02T00:47:40;6.56;93.21
47757;SHT35;22147;52.388;13.390;2024-03-02T00:50:13;6.59;93.18
47757;SHT35;22147;52.388;13.390;2024-03-02T00:52:52;6.58;93.18
47757;SHT35;22147;52.388;13.390;2024-03-02T00:55:22;6.61;93.17
47757;SHT35;22147;52.388;13.390;2024-03-02T00:57:52;6.61;93.17
47757;SHT35;22147;52.388;13.390;2024-03-02T01:00:22;6.62;93.19
47757;SHT35;22147;52.388;13.390;2024-03-02T01:02:52;6.64;93.19
47757;SHT35;22147;52.388;13.390;2024-03-02T01:05:22;6.64;93.27
47757;SHT35;22147;52.388;13.390;2024-03-02T01:07:52;6.65;93.26
47757;SHT35;22147;52.388;13.390;2024-03-02T01:10:22;6.65;93.30
47757;SHT35;22147;52.388;13.390;2024-03-02T01:12:52;6.69;93.25
47757;SHT35;22147;52.388;13.390;2024-03-02T01:15:22;6.65;93.29
47757;SHT35;22147;52.388;13.390;2024-03-02T01:17:52;6.65;93.30
47757;SHT35;22147;52.388;13.390;2024-03-02T01:20:25;6.68;93.36
47757;SHT35;22147;52.388;13.390;2024-03-02T01:22:55;6.69;93.37
47757;SHT35;22147;52.388;13.390;2024-03-02T01:25:25;6.71;93.36
47757;SHT35;22147;52.388;13.390;2024-03-02T01:27:55;6.75;93.35
47757;SHT35;22147;52.388;13.390;2024-03-02T01:30:25;6.73;93.36
47757;SHT35;22147;52.388;13.390;2024-03-02T01:32:55;6.76;93.35
47757;SHT35;22147;52.388;13.390;2024-03-02T01:35:25;6.73;93.38
47757;SHT35;22147;52.388;13.390;2024-03-02T01:37:56;6.78;93.45
47757;SHT35;22147;52.388;13.390;2024-03-02T01:40:26;6.76;93.47
47757;SHT35;22147;52.388;13.390;2024-03-02T01:42:56;6.79;93.51
47757;SHT35;22147;52.388;13.390;2024-03-02T01:45:29;6.79;93.51
47757;SHT35;22147;52.388;13.390;2024-03-02T01:47:59;6.82;93.56
47757;SHT35;22147;52.388;13.390;2024-03-02T01:50:33;6.80;93.53
47757;SHT35;22147;52.388;13.390;2024-03-02T01:53:02;6.80;93.55
47757;SHT35;22147;52.388;13.390;2024-03-02T01:55:33;6.83;93.53
47757;SHT35;22147;52.388;13.390;2024-03-02T01:58:05;6.83;93.54
47757;SHT35;22147;52.388;13.390;2024-03-02T02:00:35;6.82;93.54
47757;SHT35;22147;52.388;13.390;2024-03-02T02:03:05;6.82;93.54
47757;SHT35;22147;52.388;13.390;2024-03-02T02:05:36;6.82;93.53
47757;SHT35;22147;52.388;13.390;2024-03-02T02:08:06;6.80;93.53
47757;SHT35;22147;52.388;13.390;2024-03-02T02:10:35;6.80;93.54
47757;SHT35;22147;52.388;13.390;2024-03-02T02:13:03;6.78;93.56
47757;SHT35;22147;52.388;13.390;2024-03-02T02:15:32;6.80;93.63
47757;SHT35;22147;52.388;13.390;2024-03-02T02:18:04;6.92;93.76
47757;SHT35;22147;52.388;13.390;2024-03-02T02:20:31;6.96;93.86
47757;SHT35;22147;52.388;13.390;2024-03-02T02:23:04;7.01;93.95
47757;SHT35;22147;52.388;13.390;2024-03-02T02:25:40;7.07;94.06
47757;SHT35;22147;52.388;13.390;2024-03-02T02:28:10;7.11;94.09
47757;SHT35;22147;52.388;13.390;2024-03-02T02:30:40;7.11;94.16
47757;SHT35;22147;52.388;13.390;2024-03-02T02:33:11;7.17;94.26
47757;SHT35;22147;52.388;13.390;2024-03-02T02:35:41;7.20;94.19
47757;SHT35;22147;52.388;13.390;2024-03-02T02:38:11;7.21;94.22
47757;SHT35;22147;52.388;13.390;2024-03-02T02:40:41;7.21;94.22
47757;SHT35;22147;52.388;13.390;2024-03-02T02:43:11;7.18;94.25
47757;SHT35;22147;52.388;13.390;2024-03-02T02:45:42;7.23;94.31
47757;SHT35;22147;52.388;13.390;2024-03-02T02:48:12;7.38;94.39
47757;SHT35;22147;52.388;13.390;2024-03-02T02:50:42;7.41;94.42
47757;SHT35;22147;52.388;13.390;2024-03-02T02:53:13;7.47;94.50
47757;SHT35;22147;52.388;13.390;2024-03-02T02:55:43;7.50;94.56
47757;SHT35;22147;52.388;13.390;2024-03-02T02:58:13;7.54;94.55
47757;SHT35;22147;52.388;13.390;2024-03-02T03:00:43;7.57;94.57
47757;SHT35;22147;52.388;13.390;2024-03-02T03:03:13;7.59;94.62
47757;SHT35;22147;52.388;13.390;2024-03-02T03:05:43;7.61;94.65
47757;SHT35;22147;52.388;13.390;2024-03-02T03:08:13;7.65;94.68
47757;SHT35;22147;52.388;13.390;2024-03-02T03:10:43;7.68;94.70
47757;SHT35;22147;52.388;13.390;2024-03-02T03:13:13;7.68;94.74
47757;SHT35;22147;52.388;13.390;2024-03-02T03:15:40;7.72;94.75
47757;SHT35;22147;52.388;13.390;2024-03-02T03:18:10;7.75;94.77
47757;SHT35;22147;52.388;13.390;2024-03-02T03:20:41;7.78;94.81
47757;SHT35;22147;52.388;13.390;2024-03-02T03:23:10;7.82;94.81
47757;SHT35;22147;52.388;13.390;2024-03-02T03:25:45;7.82;94.78
47757;SHT35;22147;52.388;13.390;2024-03-02T03:28:14;7.82;94.78
47757;SHT35;22147;52.388;13.390;2024-03-02T03:30:44;7.85;94.84
47757;SHT35;22147;52.388;13.390;2024-03-02T03:33:14;7.85;94.83
47757;SHT35;22147;52.388;13.390;2024-03-02T03:35:44;7.85;94.77
47757;SHT35;22147;52.388;13.390;2024-03-02T03:38:14;7.85;94.78
47757;SHT35;22147;52.388;13.390;2024-03-02T03:40:44;7.86;94.79
47757;SHT35;22147;52.388;13.390;2024-03-02T03:43:14;7.83;94.78
47757;SHT35;22147;52.388;13.390;2024-03-02T03:45:44;7.86;94.77
47757;SHT35;22147;52.388;13.390;2024-03-02T03:48:14;7.86;94.84
47757;SHT35;22147;52.388;13.390;2024-03-02T03:50:44;7.88;94.83
47757;SHT35;22147;52.388;13.390;2024-03-02T03:53:14;7.88;94.79
47757;SHT35;22147;52.388;13.390;2024-03-02T03:55:44;7.92;94.82
47757;SHT35;22147;52.388;13.390;2024-03-02T03:58:16;7.92;94.86
47757;SHT35;22147;52.388;13.390;2024-03-02T04:00:51;7.93;94.80
47757;SHT35;22147;52.388;13.390;2024-03-02T04:03:22;7.95;94.78
47757;SHT35;22147;52.388;13.390;2024-03-02T04:05:52;8.00;94.86
47757;SHT35;22147;52.388;13.390;2024-03-02T04:08:22;7.97;94.81
47757;SHT35;22147;52.388;13.390;2024-03-02T04:10:52;7.99;94.83
47757;SHT35;22147;52.388;13.390;2024-03-02T04:13:22;8.03;94.80
47757;SHT35;22147;52.388;13.390;2024-03-02T04:15:52;8.00;94.79
47757;SHT35;22147;52.388;13.390;2024-03-02T04:18:22;7.99;94.81
47757;SHT35;22147;52.388;13.390;2024-03-02T04:20:52;8.05;94.85
47757;SHT35;22147;52.388;13.390;2024-03-02T04:23:23;8.00;94.80
47757;SHT35;22147;52.388;13.390;2024-03-02T04:25:53;8.03;94.81
47757;SHT35;22147;52.388;13.390;2024-03-02T04:28:23;8.05;94.81
47757;SHT35;22147;52.388;13.390;2024-03-02T04:30:53;8.09;94.81
47757;SHT35;22147;52.388;13.390;2024-03-02T04:33:22;8.09;94.86
47757;SHT35;22147;52.388;13.390;2024-03-02T04:35:53;8.12;94.84
47757;SHT35;22147;52.388;13.390;2024-03-02T04:38:23;8.12;94.79
47757;SHT35;22147;52.388;13.390;2024-03-02T04:40:53;8.10;94.79
47757;SHT35;22147;52.388;13.390;2024-03-02T04:43:23;8.09;94.76
47757;SHT35;22147;52.388;13.390;2024-03-02T04:45:53;8.10;94.76
47757;SHT35;22147;52.388;13.390;2024-03-02T04:48:23;8.10;94.72
47757;SHT35;22147;52.388;13.390;2024-03-02T04:50:53;8.12;94.76
47757;SHT35;22147;52.388;13.390;2024-03-02T04:53:23;8.10;94.72
47757;SHT35;22147;52.388;13.390;2024-03-02T04:55:53;8.13;94.79
47757;SHT35;22147;52.388;13.390;2024-03-02T04:58:41;8.10;94.75
47757;SHT35;22147;52.388;13.390;2024-03-02T05:01:11;8.07;94.77
47757;SHT35;22147;52.388;13.390;2024-03-02T05:03:42;8.07;94.72
47757;SHT35;22147;52.388;13.390;2024-03-02T05:06:12;8.03;94.77
47757;SHT35;22147;52.388;13.390;2024-03-02T05:08:42;8.07;94.76
47757;SHT35;22147;52.388;13.390;2024-03-02T05:11:12;8.10;94.77
47757;SHT35;22147;52.388;13.390;2024-03-02T05:14:00;8.06;94.78
47757;SHT35;22147;52.388;13.390;2024-03-02T05:16:35;8.09;94.85
47757;SHT35;22147;52.388;13.390;2024-03-02T05:19:05;8.10;94.82
47757;SHT35;22147;52.388;13.390;2024-03-02T05:21:36;8.09;94.81
47757;SHT35;22147;52.388;13.390;2024-03-02T05:24:07;8.06;94.83
47757;SHT35;22147;52.388;13.390;2024-03-02T05:26:37;8.06;94.85
47757;SHT35;22147;52.388;13.390;2024-03-02T05:29:06;8.02;94.83
47757;SHT35;22147;52.388;13.390;2024-03-02T05:31:37;7.97;94.80
47757;SHT35;22147;52.388;13.390;2024-03-02T05:34:06;7.97;94.86
47757;SHT35;22147;52.388;13.390;2024-03-02T05:36:37;8.00;94.82
47757;SHT35;22147;52.388;13.390;2024-03-02T05:39:08;8.00;94.89
47757;SHT35;22147;52.388;13.390;2024-03-02T05:41:40;7.99;94.87
47757;SHT35;22147;52.388;13.390;2024-03-02T05:44:10;7.99;94.88
47757;SHT35;22147;52.388;13.390;2024-03-02T05:46:40;8.00;94.89
47757;SHT35;22147;52.388;13.390;2024-03-02T05:49:11;7.97;94.88
47757;SHT35;22147;52.388;13.390;2024-03-02T05:51:40;7.96;94.85
47757;SHT35;22147;52.388;13.390;2024-03-02T05:54:11;7.96;94.86
47757;SHT35;22147;52.388;13.390;2024-03-02T05:56:41;7.96;94.86
47757;SHT35;22147;52.388;13.390;2024-03-02T05:59:11;7.90;94.84
47757;SHT35;22147;52.388;13.390;2024-03-02T06:01:46;7.93;94.88
47757;SHT35;22147;52.388;13.390;2024-03-02T06:04:17;7.92;94.87
47757;SHT35;22147;52.388;13.390;2024-03-02T06:06:47;7.92;94.87
47757;SHT35;22147;52.388;13.390;2024-03-02T06:09:19;7.92;94.92
47757;SHT35;22147;52.388;13.390;2024-03-02T06:11:50;7.93;94.89
47757;SHT35;22147;52.388;13.390;2024-03-02T06:14:20;7.93;94.89
47757;SHT35;22147;52.388;13.390;2024-03-02T06:16:50;7.97;94.85
47757;SHT35;22147;52.388;13.390;2024-03-02T06:19:19;7.89;94.88
47757;SHT35;22147;52.388;13.390;2024-03-02T06:21:49;7.89;94.85
47757;SHT35;22147;52.388;13.390;2024-03-02T06:24:19;7.88;94.85
47757;SHT35;22147;52.388;13.390;2024-03-02T06:26:49;7.88;94.89
47757;SHT35;22147;52.388;13.390;2024-03-02T06:29:19;7.89;94.86
47757;SHT35;22147;52.388;13.390;2024-03-02T06:31:49;7.90;94.86
47757;SHT35;22147;52.388;13.390;2024-03-02T06:34:22;7.93;94.85
47757;SHT35;22147;52.388;13.390;2024-03-02T06:36:52;7.99;94.88
47757;SHT35;22147;52.388;13.390;2024-03-02T06:39:22;7.96;94.80
47757;SHT35;22147;52.388;13.390;2024-03-02T06:41:52;7.95;94.77
47757;SHT35;22147;52.388;13.390;2024-03-02T06:44:20;7.95;94.75
47757;SHT35;22147;52.388;13.390;2024-03-02T06:46:49;7.95;94.69
47757;SHT35;22147;52.388;13.390;2024-03-02T06:49:19;8.02;94.72
47757;SHT35;22147;52.388;13.390;2024-03-02T06:51:47;7.97;94.60
47757;SHT35;22147;52.388;13.390;2024-03-02T06:54:17;7.97;94.54
47757;SHT35;22147;52.388;13.390;2024-03-02T06:56:45;8.02;94.59
47757;SHT35;22147;52.388;13.390;2024-03-02T06:59:13;8.05;94.49
47757;SHT35;22147;52.388;13.390;2024-03-02T07:01:42;8.05;94.41
47757;SHT35;22147;52.388;13.390;2024-03-02T07:04:13;8.10;94.43
47757;SHT35;22147;52.388;13.390;2024-03-02T07:06:43;8.09;94.32
47757;SHT35;22147;52.388;13.390;2024-03-02T07:09:17;8.07;94.26
47757;SHT35;22147;52.388;13.390;2024-03-02T07:11:50;8.07;94.28
47757;SHT35;22147;52.388;13.390;2024-03-02T07:14:21;8.13;94.30
47757;SHT35;22147;52.388;13.390;2024-03-02T07:16:52;8.16;94.26
47757;SHT35;22147;52.388;13.390;2024-03-02T07:19:24;8.17;94.17
47757;SHT35;22147;52.388;13.390;2024-03-02T07:21:55;8.17;94.10
47757;SHT35;22147;52.388;13.390;2024-03-02T07:24:25;8.20;94.05
47757;SHT35;22147;52.388;13.390;2024-03-02T07:26:55;8.23;94.04
47757;SHT35;22147;52.388;13.390;2024-03-02T07:29:25;8.29;93.99
47757;SHT35;22147;52.388;13.390;2024-03-02T07:31:56;8.27;93.82
47757;SHT35;22147;52.388;13.390;2024-03-02T07:34:26;8.27;93.73
47757;SHT35;22147;52.388;13.390;2024-03-02T07:36:57;8.30;93.71
47757;SHT35;22147;52.388;13.390;2024-03-02T07:39:27;8.34;93.64
47757;SHT35;22147;52.388;13.390;2024-03-02T07:41:59;8.33;93.46
47757;SHT35;22147;52.388;13.390;2024-03-02T07:44:30;8.34;93.42
47757;SHT35;22147;52.388;13.390;2024-03-02T07:47:00;8.41;93.38
47757;SHT35;22147;52.388;13.390;2024-03-02T07:49:30;8.44;93.32
47757;SHT35;22147;52.388;13.390;2024-03-02T07:52:00;8.44;93.09
47757;SHT35;22147;52.388;13.390;2024-03-02T07:54:31;8.47;93.00
47757;SHT35;22147;52.388;13.390;2024-03-02T07:57:01;8.43;92.79
47757;SHT35;22147;52.388;13.390;2024-03-02T07:59:32;8.50;92.78
47757;SHT35;22147;52.388;13.390;2024-03-02T08:02:02;8.53;92.68
47757;SHT35;22147;52.388;13.390;2024-03-02T08:04:33;8.53;92.55
47757;SHT35;22147;52.388;13.390;2024-03-02T08:07:04;8.61;92.53
47757;SHT35;22147;52.388;13.390;2024-03-02T08:09:34;8.61;92.36
47757;SHT35;22147;52.388;13.390;2024-03-02T08:12:05;8.63;92.16
47757;SHT35;22147;52.388;13.390;2024-03-02T08:14:35;8.60;91.98
47757;SHT35;22147;52.388;13.390;2024-03-02T08:17:06;8.67;91.65
47757;SHT35;22147;52.388;13.390;2024-03-02T08:19:40;8.61;91.41
47757;SHT35;22147;52.388;13.390;2024-03-02T08:22:11;8.71;91.24
47757;SHT35;22147;52.388;13.390;2024-03-02T08:24:42;8.74;91.11
47757;SHT35;22147;52.388;13.390;2024-03-02T08:27:12;8.75;90.83
47757;SHT35;22147;52.388;13.390;2024-03-02T08:29:43;8.69;90.71
47757;SHT35;22147;52.388;13.390;2024-03-02T08:32:13;8.71;90.76
47757;SHT35;22147;52.388;13.390;2024-03-02T08:34:43;8.71;90.77
47757;SHT35;22147;52.388;13.390;2024-03-02T08:37:14;8.76;90.73
47757;SHT35;22147;52.388;13.390;2024-03-02T08:39:45;8.75;90.71
47757;SHT35;22147;52.388;13.390;2024-03-02T08:42:15;8.76;90.55
47757;SHT35;22147;52.388;13.390;2024-03-02T08:44:46;8.79;90.54
47757;SHT35;22147;52.388;13.390;2024-03-02T08:47:17;8.82;90.36
47757;SHT35;22147;52.388;13.390;2024-03-02T08:49:47;8.78;90.18
47757;SHT35;22147;52.388;13.390;2024-03-02T08:52:17;8.81;90.18
47757;SHT35;22147;52.388;13.390;2024-03-02T08:54:47;8.82;90.03
47757;SHT35;22147;52.388;13.390;2024-03-02T08:57:18;8.86;90.01
47757;SHT35;22147;52.388;13.390;2024-03-02T08:59:48;8.92;89.43
47757;SHT35;22147;52.388;13.390;2024-03-02T09:02:16;8.89;89.44
47757;SHT35;22147;52.388;13.390;2024-03-02T09:04:45;8.88;89.59
47757;SHT35;22147;52.388;13.390;2024-03-02T09:07:13;8.92;89.75
47757;SHT35;22147;52.388;13.390;2024-03-02T09:09:43;8.91;89.59
47757;SHT35;22147;52.388;13.390;2024-03-02T09:12:11;8.92;89.55
47757;SHT35;22147;52.388;13.390;2024-03-02T09:14:41;8.91;89.37
47757;SHT35;22147;52.388;13.390;2024-03-02T09:17:10;8.92;89.41
47757;SHT35;22147;52.388;13.390;2024-03-02T09:19:41;8.96;89.36
47757;SHT35;22147;52.388;13.390;2024-03-02T09:22:09;8.95;89.27
47757;SHT35;22147;52.388;13.390;2024-03-02T09:24:39;8.95;89.16
47757;SHT35;22147;52.388;13.390;2024-03-02T09:27:09;8.99;88.88
47757;SHT35;22147;52.388;13.390;2024-03-02T09:29:39;9.06;88.86
47757;SHT35;22147;52.388;13.390;2024-03-02T09:32:13;9.06;88.78
47757;SHT35;22147;52.388;13.390;2024-03-02T09:34:43;9.13;88.60
47757;SHT35;22147;52.388;13.390;2024-03-02T09:37:13;9.20;88.20
47757;SHT35;22147;52.388;13.390;2024-03-02T09:39:44;9.20;87.60
47757;SHT35;22147;52.388;13.390;2024-03-02T09:42:15;9.23;87.47
47757;SHT35;22147;52.388;13.390;2024-03-02T09:44:47;9.30;87.60
47757;SHT35;22147;52.388;13.390;2024-03-02T09:47:16;9.40;87.37
47757;SHT35;22147;52.388;13.390;2024-03-02T09:49:46;9.53;86.96
47757;SHT35;22147;52.388;13.390;2024-03-02T09:52:16;9.70;86.61
47757;SHT35;22147;52.388;13.390;2024-03-02T09:54:48;9.75;85.54
47757;SHT35;22147;52.388;13.390;2024-03-02T09:57:18;9.97;85.71
47757;SHT35;22147;52.388;13.390;2024-03-02T09:59:48;10.16;85.02
47757;SHT35;22147;52.388;13.390;2024-03-02T10:02:18;10.26;84.37
47757;SHT35;22147;52.388;13.390;2024-03-02T10:04:49;10.34;83.92
47757;SHT35;22147;52.388;13.390;2024-03-02T10:07:20;10.46;83.76
47757;SHT35;22147;52.388;13.390;2024-03-02T10:09:49;10.53;83.14
47757;SHT35;22147;52.388;13.390;2024-03-02T10:12:19;10.61;82.53
47757;SHT35;22147;52.388;13.390;2024-03-02T10:14:49;10.63;82.48
47757;SHT35;22147;52.388;13.390;2024-03-02T10:17:31;10.59;81.91
47757;SHT35;22147;52.388;13.390;2024-03-02T10:20:25;10.71;82.21
47757;SHT35;22147;52.388;13.390;2024-03-02T10:23:11;10.84;82.15
47757;SHT35;22147;52.388;13.390;2024-03-02T10:25:43;10.95;81.59
47757;SHT35;22147;52.388;13.390;2024-03-02T10:28:24;10.92;80.53
47757;SHT35;22147;52.388;13.390;2024-03-02T10:30:58;10.88;80.42
47757;SHT35;22147;52.388;13.390;2024-03-02T10:33:28;11.01;80.70
47757;SHT35;22147;52.388;13.390;2024-03-02T10:35:59;11.07;80.08
47757;SHT35;22147;52.388;13.390;2024-03-02T10:38:31;11.08;79.96
47757;SHT35;22147;52.388;13.390;2024-03-02T10:41:03;11.29;80.65
47757;SHT35;22147;52.388;13.390;2024-03-02T10:43:33;11.43;80.30
47757;SHT35;22147;52.388;13.390;2024-03-02T10:46:04;11.52;79.03
47757;SHT35;22147;52.388;13.390;2024-03-02T10:48:39;11.39;78.52
47757;SHT35;22147;52.388;13.390;2024-03-02T10:51:11;11.52;79.01
47757;SHT35;22147;52.388;13.390;2024-03-02T10:53:41;11.62;77.67
47757;SHT35;22147;52.388;13.390;2024-03-02T10:56:29;11.73;78.23
47757;SHT35;22147;52.388;13.390;2024-03-02T11:01:47;12.20;76.73
47757;SHT35;22147;52.388;13.390;2024-03-02T11:04:21;12.53;76.41
47757;SHT35;22147;52.388;13.390;2024-03-02T11:07:00;12.76;74.87
47757;SHT35;22147;52.388;13.390;2024-03-02T11:09:47;12.92;74.64
47757;SHT35;22147;52.388;13.390;2024-03-02T11:12:36;13.23;75.07
47757;SHT35;22147;52.388;13.390;2024-03-02T11:15:18;13.81;73.50
47757;SHT35;22147;52.388;13.390;2024-03-02T11:17:54;13.98;70.32
47757;SHT35;22147;52.388;13.390;2024-03-02T11:20:26;13.61;71.57
47757;SHT35;22147;52.388;13.390;2024-03-02T11:23:06;13.85;72.54
47757;SHT35;22147;52.388;13.390;2024-03-02T11:25:37;13.89;70.17
47757;SHT35;22147;52.388;13.390;2024-03-02T11:28:09;13.83;69.45
47757;SHT35;22147;52.388;13.390;2024-03-02T11:33:24;13.51;71.06
47757;SHT35;22147;52.388;13.390;2024-03-02T11:35:58;13.61;70.08
47757;SHT35;22147;52.388;13.390;2024-03-02T11:38:31;13.63;70.39
47757;SHT35;22147;52.388;13.390;2024-03-02T11:41:07;13.81;69.29
47757;SHT35;22147;52.388;13.390;2024-03-02T11:43:40;13.81;69.33
47757;SHT35;22147;52.388;13.390;2024-03-02T11:46:11;13.82;71.38
47757;SHT35;22147;52.388;13.390;2024-03-02T11:48:43;13.98;70.28
47757;SHT35;22147;52.388;13.390;2024-03-02T11:51:13;14.00;69.73
47757;SHT35;22147;52.388;13.390;2024-03-02T11:53:48;13.93;68.86
47757;SHT35;22147;52.388;13.390;2024-03-02T11:56:20;13.92;69.73
47757;SHT35;22147;52.388;13.390;2024-03-02T11:58:54;13.70;69.92
47757;SHT35;22147;52.388;13.390;2024-03-02T12:01:25;13.79;69.42
47757;SHT35;22147;52.388;13.390;2024-03-02T12:03:58;13.70;69.28
47757;SHT35;22147;52.388;13.390;2024-03-02T12:06:29;13.68;69.21
47757;SHT35;22147;52.388;13.390;2024-03-02T12:09:00;13.62;69.92
47757;SHT35;22147;52.388;13.390;2024-03-02T12:11:31;13.75;69.44
47757;SHT35;22147;52.388;13.390;2024-03-02T12:14:01;13.72;69.62
47757;SHT35;22147;52.388;13.390;2024-03-02T12:16:32;13.76;71.01
47757;SHT35;22147;52.388;13.390;2024-03-02T12:19:02;13.69;70.50
47757;SHT35;22147;52.388;13.390;2024-03-02T12:21:33;13.65;70.93
47757;SHT35;22147;52.388;13.390;2024-03-02T12:24:03;13.78;71.12
47757;SHT35;22147;52.388;13.390;2024-03-02T12:26:34;13.76;70.54
47757;SHT35;22147;52.388;13.390;2024-03-02T12:29:04;13.69;70.30
47757;SHT35;22147;52.388;13.390;2024-03-02T12:31:35;13.49;71.22
47757;SHT35;22147;52.388;13.390;2024-03-02T12:34:05;13.32;70.74
47757;SHT35;22147;52.388;13.390;2024-03-02T12:36:40;13.24;70.98
47757;SHT35;22147;52.388;13.390;2024-03-02T12:39:11;13.34;71.71
47757;SHT35;22147;52.388;13.390;2024-03-02T12:41:42;13.34;71.33
47757;SHT35;22147;52.388;13.390;2024-03-02T12:44:10;13.44;71.27
47757;SHT35;22147;52.388;13.390;2024-03-02T12:46:39;13.58;71.88
47757;SHT35;22147;52.388;13.390;2024-03-02T12:49:15;13.78;71.11
47757;SHT35;22147;52.388;13.390;2024-03-02T12:51:46;14.10;70.26
47757;SHT35;22147;52.388;13.390;2024-03-02T12:54:22;14.17;68.93
47757;SHT35;22147;52.388;13.390;2024-03-02T12:56:53;14.26;68.21
47757;SHT35;22147;52.388;13.390;2024-03-02T12:59:25;14.14;70.40
47757;SHT35;22147;52.388;13.390;2024-03-02T13:01:57;14.34;69.09
47757;SHT35;22147;52.388;13.390;2024-03-02T13:04:29;14.41;68.38
47757;SHT35;22147;52.388;13.390;2024-03-02T13:07:01;14.51;68.02
47757;SHT35;22147;52.388;13.390;2024-03-02T13:09:32;14.51;66.78
47757;SHT35;22147;52.388;13.390;2024-03-02T13:12:04;14.40;66.10
47757;SHT35;22147;52.388;13.390;2024-03-02T13:14:35;14.19;66.94
47757;SHT35;22147;52.388;13.390;2024-03-02T13:17:11;14.20;68.00
47757;SHT35;22147;52.388;13.390;2024-03-02T13:20:00;14.30;68.16
47757;SHT35;22147;52.388;13.390;2024-03-02T13:22:30;14.36;67.54
47757;SHT35;22147;52.388;13.390;2024-03-02T13:25:01;14.13;65.87
47757;SHT35;22147;52.388;13.390;2024-03-02T13:27:34;14.19;66.72
47757;SHT35;22147;52.388;13.390;2024-03-02T13:30:06;14.31;66.82
47757;SHT35;22147;52.388;13.390;2024-03-02T13:32:39;14.48;66.85
47757;SHT35;22147;52.388;13.390;2024-03-02T13:35:09;14.81;65.39
47757;SHT35;22147;52.388;13.390;2024-03-02T13:37:41;15.09;65.98
47757;SHT35;22147;52.388;13.390;2024-03-02T13:40:12;15.46;63.74
47757;SHT35;22147;52.388;13.390;2024-03-02T13:42:50;15.55;61.86
47757;SHT35;22147;52.388;13.390;2024-03-02T13:45:22;15.25;61.32
47757;SHT35;22147;52.388;13.390;2024-03-02T13:47:52;15.07;62.69
47757;SHT35;22147;52.388;13.390;2024-03-02T13:50:23;15.27;63.44
47757;SHT35;22147;52.388;13.390;2024-03-02T13:52:53;15.49;62.14
47757;SHT35;22147;52.388;13.390;2024-03-02T13:55:23;15.55;61.10
47757;SHT35;22147;52.388;13.390;2024-03-02T13:57:54;15.54;60.57
47757;SHT35;22147;52.388;13.390;2024-03-02T14:00:24;15.49;60.56
47757;SHT35;22147;52.388;13.390;2024-03-02T14:02:56;15.18;62.08
47757;SHT35;22147;52.388;13.390;2024-03-02T14:05:26;15.12;62.25
47757;SHT35;22147;52.388;13.390;2024-03-02T14:07:59;14.99;61.46
47757;SHT35;22147;52.388;13.390;2024-03-02T14:10:32;14.71;61.21
47757;SHT35;22147;52.388;13.390;2024-03-02T14:13:03;14.63;61.70
47757;SHT35;22147;52.388;13.390;2024-03-02T14:15:33;14.60;62.54
47757;SHT35;22147;52.388;13.390;2024-03-02T14:18:04;14.50;62.64
47757;SHT35;22147;52.388;13.390;2024-03-02T14:20:35;14.28;63.01
47757;SHT35;22147;52.388;13.390;2024-03-02T14:23:05;14.36;63.15
47757;SHT35;22147;52.388;13.390;2024-03-02T14:25:34;14.44;63.21
47757;SHT35;22147;52.388;13.390;2024-03-02T14:28:02;14.44;62.83
47757;SHT35;22147;52.388;13.390;2024-03-02T14:30:52;14.44;62.75
47757;SHT35;22147;52.388;13.390;2024-03-02T14:33:23;14.61;61.92
47757;SHT35;22147;52.388;13.390;2024-03-02T14:35:54;14.68;62.31
47757;SHT35;22147;52.388;13.390;2024-03-02T14:38:24;14.78;63.39
47757;SHT35;22147;52.388;13.390;2024-03-02T14:40:54;14.84;64.14
47757;SHT35;22147;52.388;13.390;2024-03-02T14:43:25;14.72;63.82
47757;SHT35;22147;52.388;13.390;2024-03-02T14:45:56;14.82;63.76
47757;SHT35;22147;52.388;13.390;2024-03-02T14:48:29;14.74;64.33
47757;SHT35;22147;52.388;13.390;2024-03-02T14:50:59;14.60;64.73
47757;SHT35;22147;52.388;13.390;2024-03-02T14:53:30;14.67;64.29
47757;SHT35;22147;52.388;13.390;2024-03-02T14:56:00;14.84;65.27
47757;SHT35;22147;52.388;13.390;2024-03-02T14:58:30;14.95;64.53
47757;SHT35;22147;52.388;13.390;2024-03-02T15:01:01;15.02;63.10
47757;SHT35;22147;52.388;13.390;2024-03-02T15:03:33;14.82;64.70
47757;SHT35;22147;52.388;13.390;2024-03-02T15:06:04;14.54;66.47
47757;SHT35;22147;52.388;13.390;2024-03-02T15:08:35;14.48;67.21
47757;SHT35;22147;52.388;13.390;2024-03-02T15:11:05;14.47;66.96
47757;SHT35;22147;52.388;13.390;2024-03-02T15:13:36;14.38;66.52
47757;SHT35;22147;52.388;13.390;2024-03-02T15:16:07;14.40;66.42
47757;SHT35;22147;52.388;13.390;2024-03-02T15:18:37;14.33;65.94
47757;SHT35;22147;52.388;13.390;2024-03-02T15:21:07;14.23;67.08
47757;SHT35;22147;52.388;13.390;2024-03-02T15:23:37;14.06;66.75
47757;SHT35;22147;52.388;13.390;2024-03-02T15:26:09;13.99;67.44
47757;SHT35;22147;52.388;13.390;2024-03-02T15:28:41;13.85;67.78
47757;SHT35;22147;52.388;13.390;2024-03-02T15:31:11;13.83;67.77
47757;SHT35;22147;52.388;13.390;2024-03-02T15:33:42;13.78;68.43
47757;SHT35;22147;52.388;13.390;2024-03-02T15:36:12;13.69;68.69
47757;SHT35;22147;52.388;13.390;2024-03-02T15:38:42;13.66;68.88
47757;SHT35;22147;52.388;13.390;2024-03-02T15:41:13;13.59;67.93
47757;SHT35;22147;52.388;13.390;2024-03-02T15:43:44;13.47;68.73
47757;SHT35;22147;52.388;13.390;2024-03-02T15:46:14;13.28;68.95
47757;SHT35;22147;52.388;13.390;2024-03-02T15:48:44;13.16;68.93
47757;SHT35;22147;52.388;13.390;2024-03-02T15:51:15;12.99;69.67
47757;SHT35;22147;52.388;13.390;2024-03-02T15:53:45;12.87;69.89
47757;SHT35;22147;52.388;13.390;2024-03-02T15:56:15;12.75;70.65